M I D A S
Marine Information and Data Acquisition System
Tripno 1691 of the Zeeleeuw from 2009-05-08 06:45:49 to 2009-05-08 12:07:22
Back to CruiseResearch ActivitiesStationsMapUnderway DataData graphs

EquipmentUnitsComment
TimeDGPSUTC
LatitudeDGPSDM.mWGS84
LongitudeDGPSDM.mWGS84
HeadingGyrodeg 
SOGDGPSknotsSpeed over ground
COGDGPSdegCourse over ground
DepthEcho soundermeters200 kHz
Missing or incorrect values are displayed as -999
Navigation data collected by the RV Zeeleeuw from 2009-05-08 06:36:44 to 2009-05-08 12:47:16
Time Latitude Longitude Heading SOG COG Depth
2009-05-08 06:37:49 51°13.664 2°55.958 127 -999 213 -999
2009-05-08 06:38:48 51°13.663 2°55.958 127.4 -999 12 4.7
2009-05-08 06:39:49 51°13.662 2°55.959 127.1 -999 87 -999
2009-05-08 06:40:49 51°13.663 2°55.958 127.2 -999 190 -999
2009-05-08 06:41:49 51°13.663 2°55.959 127.3 -999 121 4.5
2009-05-08 06:42:48 51°13.663 2°55.959 128.7 -999 333 -999
2009-05-08 06:43:47 51°13.663 2°55.959 128.7 -999 104 4.5
2009-05-08 06:44:46 51°13.663 2°55.959 129.4 -999 347 4.6
2009-05-08 06:45:45 51°13.663 2°55.96 126.4 -999 186 4.5
2009-05-08 06:46:45 51°13.662 2°55.96 122.6 -999 209 4.6
2009-05-08 06:47:45 51°13.661 2°55.96 117.7 -999 180 4.7
2009-05-08 06:48:45 51°13.662 2°55.958 111.9 0.7 300 4.7
2009-05-08 06:49:49 51°13.675 2°55.916 111.9 2.2 297 -999
2009-05-08 06:50:49 51°13.69 2°55.845 99.6 2.8 283 -999
2009-05-08 06:51:49 51°13.693 2°55.777 79.2 2.2 269 -999
2009-05-08 06:52:49 51°13.697 2°55.749 50.4 0.7 11 11.8
2009-05-08 06:53:48 51°13.73 2°55.746 344.9 3.6 332 10.5
2009-05-08 06:54:46 51°13.806 2°55.652 327.4 7.5 328 9.3
2009-05-08 06:55:45 51°13.93 2°55.555 339.9 8.8 337 9.5
2009-05-08 06:56:45 51°14.069 2°55.456 336.7 9.3 335 9.6
2009-05-08 06:57:45 51°14.21 2°55.347 333.1 9.4 329 9.7
2009-05-08 06:58:45 51°14.324 2°55.181 312.6 9.4 311 10.2
2009-05-08 06:59:45 51°14.409 2°54.959 301.3 10.4 300 9.5
2009-05-08 07:00:45 51°14.474 2°54.68 277 11.5 269 9.6
2009-05-08 07:01:45 51°14.405 2°54.392 236.7 11.9 236 8.8
2009-05-08 07:02:45 51°14.264 2°54.163 223.6 12.3 226 8.3
2009-05-08 07:03:45 51°14.121 2°53.926 227.3 12.4 227 8.1
2009-05-08 07:04:45 51°13.988 2°53.674 230.6 12.5 230 8.2
2009-05-08 07:05:45 51°13.855 2°53.42 230.6 12.4 230 8.3
2009-05-08 07:06:45 51°13.722 2°53.165 229.8 12.5 230 8.4
2009-05-08 07:07:45 51°13.621 2°52.97 229 7.2 229 8.6
2009-05-08 07:08:45 51°13.553 2°52.85 228.2 5.6 228 8.8
2009-05-08 07:09:45 51°13.499 2°52.75 229.9 4.4 230 8.8
2009-05-08 07:10:45 51°13.456 2°52.674 226.1 3.3 226 8.8
2009-05-08 07:11:45 51°13.425 2°52.616 230.2 2.4 231 8.8
2009-05-08 07:12:45 51°13.396 2°52.557 233.7 3.2 230 8.8
2009-05-08 07:13:45 51°13.358 2°52.479 231.4 4.3 234 8.8
2009-05-08 07:14:45 51°13.314 2°52.383 235 4.7 236 8.7
2009-05-08 07:15:45 51°13.273 2°52.277 240.4 4.8 240 8.8
2009-05-08 07:16:45 51°13.232 2°52.17 237.1 4.7 235 8.8
2009-05-08 07:17:45 51°13.188 2°52.068 233.9 4.6 233 8.9
2009-05-08 07:18:45 51°13.141 2°51.968 234.1 4.7 233 8.8
2009-05-08 07:19:45 51°13.094 2°51.864 233.8 4.8 233 8.8
2009-05-08 07:20:45 51°13.047 2°51.761 234.8 4.8 235 8.8
2009-05-08 07:21:45 51°12.999 2°51.658 234.8 4.8 235 8.7
2009-05-08 07:22:45 51°12.952 2°51.556 234.4 4.9 232 8.8
2009-05-08 07:23:45 51°12.905 2°51.455 235.7 4.7 234 8.8
2009-05-08 07:24:45 51°12.86 2°51.354 241.1 4.6 238 8.7
2009-05-08 07:25:45 51°12.823 2°51.247 246.2 4.6 243 8.9
2009-05-08 07:26:45 51°12.788 2°51.137 246.8 4.6 243 8.8
2009-05-08 07:27:45 51°12.754 2°51.026 246.9 4.7 243 8.8
2009-05-08 07:28:45 51°12.72 2°50.916 247.2 4.6 245 8.9
2009-05-08 07:29:45 51°12.684 2°50.806 245.4 4.7 242 8.9
2009-05-08 07:30:45 51°12.648 2°50.698 245.2 4.7 242 8.8
2009-05-08 07:31:45 51°12.612 2°50.59 244.9 4.6 243 8.9
2009-05-08 07:32:45 51°12.577 2°50.483 245.3 4.6 242 8.8
2009-05-08 07:33:45 51°12.54 2°50.376 244.7 4.6 241 8.7
2009-05-08 07:34:45 51°12.504 2°50.267 245.6 4.6 242 8.6
2009-05-08 07:35:45 51°12.469 2°50.16 243.3 4.5 241 8.7
2009-05-08 07:36:45 51°12.427 2°50.06 236.5 4.5 235 8.7
2009-05-08 07:37:45 51°12.384 2°49.962 237.8 4.5 236 8.7
2009-05-08 07:38:45 51°12.343 2°49.864 239.8 4.4 238 8.6
2009-05-08 07:39:45 51°12.308 2°49.776 240.4 3.2 238 8.7
2009-05-08 07:40:45 51°12.283 2°49.718 238.7 2.3 233 8.7
2009-05-08 07:41:45 51°12.265 2°49.679 237.4 1.6 233 8.7
2009-05-08 07:42:45 51°12.251 2°49.652 239.5 1.1 226 8.7
2009-05-08 07:43:45 51°12.239 2°49.635 231.6 1.1 218 8.7
2009-05-08 07:44:45 51°12.21 2°49.589 234.5 3.6 232 8.7
2009-05-08 07:45:45 51°12.174 2°49.494 242.6 4.6 240 8.7
2009-05-08 07:46:45 51°12.132 2°49.389 235.3 4.7 234 8.6
2009-05-08 07:47:45 51°12.086 2°49.292 235.8 4.4 235 8.6
2009-05-08 07:48:45 51°12.043 2°49.196 234.5 4.5 233 8.6
2009-05-08 07:49:45 51°11.998 2°49.103 233.8 4.4 232 8.6
2009-05-08 07:50:45 51°11.954 2°49.005 238.6 4.5 236 8.6
2009-05-08 07:51:45 51°11.913 2°48.905 237.8 4.4 236 8.6
2009-05-08 07:52:45 51°11.869 2°48.81 234.8 4.5 233 8.6
2009-05-08 07:53:45 51°11.827 2°48.713 238.6 4.4 236 8.6
2009-05-08 07:54:45 51°11.787 2°48.613 240 4.5 238 8.5
2009-05-08 07:55:45 51°11.747 2°48.513 239.4 4.4 237 8.5
2009-05-08 07:56:45 51°11.706 2°48.416 238.2 4.4 237 8.6
2009-05-08 07:57:45 51°11.666 2°48.319 239.3 4.3 236 8.5
2009-05-08 07:58:45 51°11.625 2°48.221 239.9 4.5 238 8.7
2009-05-08 07:59:45 51°11.584 2°48.119 236.4 4.6 233 8.7
2009-05-08 08:00:45 51°11.537 2°48.022 234.3 4.7 233 8.7
2009-05-08 08:01:45 51°11.494 2°47.918 239.6 4.7 237 8.6
2009-05-08 08:02:45 51°11.452 2°47.813 239.8 4.6 237 8.6
2009-05-08 08:03:45 51°11.411 2°47.71 239.6 4.6 238 8.6
2009-05-08 08:04:45 51°11.371 2°47.607 239.6 4.6 238 8.6
2009-05-08 08:05:45 51°11.329 2°47.506 239 4.6 236 8.5
2009-05-08 08:06:45 51°11.288 2°47.404 239.6 4.6 238 8.6
2009-05-08 08:07:45 51°11.247 2°47.301 239.5 4.6 236 8.6
2009-05-08 08:08:45 51°11.207 2°47.198 244.4 4.5 243 8.5
2009-05-08 08:09:45 51°11.178 2°47.088 254.2 4.5 251 8.5
2009-05-08 08:10:45 51°11.164 2°46.971 271 4.4 268 8.4
2009-05-08 08:11:45 51°11.175 2°46.858 286.5 4.3 284 8.2
2009-05-08 08:12:45 51°11.191 2°46.749 284.7 3.6 282 8.1
2009-05-08 08:13:45 51°11.199 2°46.676 283 2.2 282 8.1
2009-05-08 08:14:45 51°11.207 2°46.632 292.1 1.4 297 8
2009-05-08 08:15:45 51°11.238 2°46.559 316 4.8 314 7.9
2009-05-08 08:16:45 51°11.311 2°46.482 339 5.4 336 7.9
2009-05-08 08:17:45 51°11.393 2°46.443 355.1 4.8 352 8.7
2009-05-08 08:18:45 51°11.468 2°46.451 17 4.5 14 9.6
2009-05-08 08:19:45 51°11.54 2°46.468 8.1 4.4 2 10.2
2009-05-08 08:20:45 51°11.611 2°46.484 22.6 4.3 19 11.1
2009-05-08 08:21:45 51°11.661 2°46.556 62.9 4 65 11.5
2009-05-08 08:22:45 51°11.666 2°46.662 94 4.2 96 11
2009-05-08 08:23:45 51°11.661 2°46.777 89.4 4.4 92 10.6
2009-05-08 08:24:45 51°11.658 2°46.894 89.4 4.4 93 10.2
2009-05-08 08:25:45 51°11.654 2°47.006 90 4.2 93 9.8
2009-05-08 08:26:45 51°11.65 2°47.116 89.4 4.1 93 9.5
2009-05-08 08:27:45 51°11.647 2°47.225 89.4 4.1 92 9.2
2009-05-08 08:28:45 51°11.643 2°47.335 90 4.2 92 8.9
2009-05-08 08:29:45 51°11.641 2°47.447 89.8 4.3 90 8.7
2009-05-08 08:30:45 51°11.639 2°47.561 89.7 4.3 90 8.6
2009-05-08 08:31:45 51°11.637 2°47.676 89.6 4.3 92 8.4
2009-05-08 08:32:45 51°11.635 2°47.791 89.3 4.4 93 8.6
2009-05-08 08:33:45 51°11.634 2°47.905 89 4.3 92 8.7
2009-05-08 08:34:45 51°11.636 2°48.018 82.8 4.2 84 8.8
2009-05-08 08:35:45 51°11.651 2°48.127 72.7 4.2 74 9
2009-05-08 08:36:45 51°11.671 2°48.234 71.7 4.2 73 9
2009-05-08 08:37:45 51°11.69 2°48.342 74.5 4.3 76 9
2009-05-08 08:38:45 51°11.709 2°48.451 74.1 4.3 74 9.1
2009-05-08 08:39:45 51°11.728 2°48.559 72.2 4.2 72 9.1
2009-05-08 08:40:45 51°11.752 2°48.665 69 4.3 69 9.2
2009-05-08 08:41:45 51°11.778 2°48.769 66.3 4.2 66 9.1
2009-05-08 08:42:45 51°11.808 2°48.868 62.5 4.2 62 9.2
2009-05-08 08:43:45 51°11.84 2°48.964 58.8 4.1 58 9.2
2009-05-08 08:44:45 51°11.877 2°49.054 57.1 4.1 56 9.2
2009-05-08 08:45:45 51°11.913 2°49.145 56.9 4 57 9.2
2009-05-08 08:46:45 51°11.949 2°49.235 55.3 4.1 54 9.2
2009-05-08 08:47:45 51°11.991 2°49.323 52.3 4.2 50 9.3
2009-05-08 08:48:45 51°12.033 2°49.41 53.1 4.2 53 9.3
2009-05-08 08:49:45 51°12.075 2°49.501 54.4 4.3 53 9.3
2009-05-08 08:50:45 51°12.116 2°49.592 54.1 4.1 54 9.4
2009-05-08 08:51:45 51°12.15 2°49.672 56 3.4 56 9.4
2009-05-08 08:52:45 51°12.179 2°49.742 54.7 3.1 56 9.4
2009-05-08 08:53:45 51°12.205 2°49.806 57.8 2.7 56 9.4
2009-05-08 08:54:45 51°12.225 2°49.865 65.4 2.4 65 9.4
2009-05-08 08:55:45 51°12.239 2°49.918 64 2.1 63 9.4
2009-05-08 08:56:45 51°12.256 2°49.962 51 1.8 51 9.4
2009-05-08 08:57:45 51°12.278 2°49.989 30.3 1.5 33 9.5
2009-05-08 08:58:45 51°12.3 2°50.001 7.8 1.7 7 9.6
2009-05-08 08:59:45 51°12.357 2°49.988 345.9 4.4 343 9.7
2009-05-08 09:00:45 51°12.433 2°49.985 19.4 4.9 22 9.7
2009-05-08 09:01:45 51°12.491 2°50.063 49.4 4.5 50 9.7
2009-05-08 09:02:45 51°12.529 2°50.163 67.6 4.4 68 9.8
2009-05-08 09:03:45 51°12.549 2°50.273 78.5 4.3 78 9.8
2009-05-08 09:04:45 51°12.559 2°50.387 86.8 4.3 84 9.8
2009-05-08 09:05:45 51°12.564 2°50.499 86.7 4.1 86 9.9
2009-05-08 09:06:45 51°12.579 2°50.602 71.2 4.1 70 9.9
2009-05-08 09:07:45 51°12.609 2°50.699 58.1 4 58 9.9
2009-05-08 09:08:45 51°12.645 2°50.791 61 4.1 59 9.9
2009-05-08 09:09:45 51°12.678 2°50.889 65.2 4.2 64 10
2009-05-08 09:10:45 51°12.705 2°50.994 70.2 4.3 69 10
2009-05-08 09:11:45 51°12.731 2°51.102 71.1 4.3 70 9.9
2009-05-08 09:12:45 51°12.76 2°51.205 62.5 4.2 60 9.8
2009-05-08 09:13:45 51°12.802 2°51.296 51.8 4.4 51 9.9
2009-05-08 09:14:45 51°12.844 2°51.391 57.4 4.4 58 9.9
2009-05-08 09:15:45 51°12.884 2°51.489 57.9 4.4 57 9.9
2009-05-08 09:16:45 51°12.924 2°51.585 56.6 4.4 57 9.9
2009-05-08 09:17:45 51°12.962 2°51.683 58.6 4.3 58 9.9
2009-05-08 09:18:45 51°13 2°51.78 58.5 4.4 59 9.9
2009-05-08 09:19:45 51°13.039 2°51.878 58.2 4.4 57 9.7
2009-05-08 09:20:45 51°13.077 2°51.979 59.4 4.4 59 9.7
2009-05-08 09:21:45 51°13.122 2°52.071 48 4.5 48 9.9
2009-05-08 09:22:45 51°13.173 2°52.158 47.3 4.5 48 10
2009-05-08 09:23:45 51°13.223 2°52.246 48.2 4.5 48 9.9
2009-05-08 09:24:45 51°13.273 2°52.335 47.6 4.5 48 10.2
2009-05-08 09:25:45 51°13.323 2°52.426 49.2 4.6 48 10.3
2009-05-08 09:26:45 51°13.374 2°52.513 39.6 4.4 41 10.4
2009-05-08 09:27:45 51°13.434 2°52.579 29.8 4.4 33 10.4
2009-05-08 09:28:45 51°13.494 2°52.646 37.8 4.4 41 10.5
2009-05-08 09:29:45 51°13.538 2°52.735 60 3.9 61 10.6
2009-05-08 09:30:45 51°13.562 2°52.817 73.1 3.1 69 10.6
2009-05-08 09:31:45 51°13.581 2°52.889 66.1 2.8 65 10.5
2009-05-08 09:32:45 51°13.606 2°52.946 46.9 2.5 49 10.6
2009-05-08 09:33:45 51°13.637 2°52.991 30.7 2.6 39 10.6
2009-05-08 09:34:45 51°13.69 2°53.041 18.8 5.5 23 10.5
2009-05-08 09:35:45 51°13.777 2°53.099 28 4.8 35 10.8
2009-05-08 09:36:45 51°13.824 2°53.178 50.5 3.8 51 10.6
2009-05-08 09:37:45 51°13.859 2°53.255 57.2 3.4 57 10.6
2009-05-08 09:38:45 51°13.886 2°53.33 64.4 3.1 63 10.6
2009-05-08 09:39:45 51°13.91 2°53.4 56.4 3.1 55 10.6
2009-05-08 09:40:45 51°13.95 2°53.467 37.8 3.8 41 10.6
2009-05-08 09:41:45 51°14.013 2°53.539 23.4 5.6 28 10.6
2009-05-08 09:42:45 51°14.1 2°53.596 13.2 5.1 20 10.6
2009-05-08 09:43:45 51°14.172 2°53.62 353 3.8 9 10.8
2009-05-08 09:44:45 51°14.223 2°53.634 343.5 2.7 13 11
2009-05-08 09:45:45 51°14.275 2°53.655 6.5 5.1 19 11.3
2009-05-08 09:46:45 51°14.406 2°53.753 25.4 10.5 29 11.5
2009-05-08 09:47:45 51°14.555 2°53.946 44.3 12.3 44 11.7
2009-05-08 09:48:45 51°14.697 2°54.188 49.6 12.4 44 11.9
2009-05-08 09:49:45 51°14.825 2°54.453 54.1 12.7 56 11
2009-05-08 09:50:45 51°14.937 2°54.737 62.3 12.7 58 10.7
2009-05-08 09:51:45 51°15.036 2°55.035 63.7 12.7 58 10.2
2009-05-08 09:52:45 51°15.133 2°55.334 64.2 12.7 61 10.2
2009-05-08 09:53:45 51°15.232 2°55.636 63.9 12.9 64 9.8
2009-05-08 09:54:45 51°15.324 2°55.908 61.9 9.1 59 9.6
2009-05-08 09:55:45 51°15.376 2°56.073 68.3 5.6 64 9.8
2009-05-08 09:56:45 51°15.409 2°56.192 70.6 4.7 67 9.7
2009-05-08 09:57:45 51°15.449 2°56.312 57 5.3 57 9.7
2009-05-08 09:58:45 51°15.501 2°56.427 55.7 5.2 58 9.7
2009-05-08 09:59:45 51°15.544 2°56.544 64 5 62 9.6
2009-05-08 10:00:45 51°15.583 2°56.659 63.6 4.9 61 9.5
2009-05-08 10:01:45 51°15.622 2°56.772 61.8 4.8 61 9.5
2009-05-08 10:02:45 51°15.661 2°56.884 63 4.8 62 9.4
2009-05-08 10:03:45 51°15.699 2°56.995 60.7 4.8 61 9.4
2009-05-08 10:04:45 51°15.738 2°57.106 62.5 4.8 61 9.3
2009-05-08 10:05:45 51°15.777 2°57.217 64.4 4.8 61 9.3
2009-05-08 10:06:45 51°15.816 2°57.328 60.6 4.8 59 9.3
2009-05-08 10:07:45 51°15.856 2°57.436 60.9 4.7 59 9.3
2009-05-08 10:08:45 51°15.894 2°57.543 62.7 4.7 60 9.4
2009-05-08 10:09:45 51°15.933 2°57.649 61.6 4.5 61 9.4
2009-05-08 10:10:45 51°15.97 2°57.754 59.8 4.6 60 9.4
2009-05-08 10:11:45 51°16.009 2°57.859 60.6 4.6 59 9.5
2009-05-08 10:12:45 51°16.049 2°57.965 59.3 4.7 58 9.5
2009-05-08 10:13:45 51°16.09 2°58.073 59.8 4.7 59 9.6
2009-05-08 10:14:45 51°16.13 2°58.179 61.2 4.6 59 9.7
2009-05-08 10:15:45 51°16.169 2°58.285 60.1 4.6 60 9.7
2009-05-08 10:16:45 51°16.209 2°58.392 63.2 4.7 59 9.8
2009-05-08 10:17:45 51°16.249 2°58.501 62.5 4.7 60 9.8
2009-05-08 10:18:45 51°16.291 2°58.611 58.5 4.8 59 9.9
2009-05-08 10:19:45 51°16.335 2°58.722 59.6 5 57 9.9
2009-05-08 10:20:45 51°16.378 2°58.836 58.9 5 59 10.1
2009-05-08 10:21:45 51°16.422 2°58.95 60.6 5 60 10.1
2009-05-08 10:22:45 51°16.464 2°59.067 64 5.1 60 10.2
2009-05-08 10:23:45 51°16.504 2°59.182 65.1 4.9 62 10.1
2009-05-08 10:24:45 51°16.538 2°59.29 74.7 4.4 65 10.1
2009-05-08 10:25:45 51°16.569 2°59.395 78.9 4.3 66 10.2
2009-05-08 10:26:45 51°16.598 2°59.496 81.6 4.1 65 10.2
2009-05-08 10:27:45 51°16.633 2°59.62 72.6 6 67 10.2
2009-05-08 10:28:45 51°16.67 2°59.775 77.2 6.3 70 10.2
2009-05-08 10:29:45 51°16.705 2°59.92 73.5 5.6 67 10.2
2009-05-08 10:30:45 51°16.743 3°0.05 66.7 5.4 62 10.2
2009-05-08 10:31:45 51°16.79 3°0.168 49.4 5.1 53 10.2
2009-05-08 10:32:45 51°16.842 3°0.271 41 4.9 50 10.3
2009-05-08 10:33:45 51°16.891 3°0.376 51.2 5 55 10.4
2009-05-08 10:34:45 51°16.936 3°0.487 57.3 4.9 58 10.4
2009-05-08 10:35:45 51°16.978 3°0.597 56.5 4.8 59 10.4
2009-05-08 10:36:45 51°17.02 3°0.704 55 4.7 58 10.3
2009-05-08 10:37:45 51°17.061 3°0.811 53.5 4.7 58 10.5
2009-05-08 10:38:45 51°17.104 3°0.917 52.6 4.7 58 10.4
2009-05-08 10:39:45 51°17.147 3°1.022 52.4 4.7 57 10.4
2009-05-08 10:40:45 51°17.19 3°1.128 52.2 4.8 56 10.6
2009-05-08 10:41:45 51°17.235 3°1.236 47.2 4.9 57 10.6
2009-05-08 10:42:45 51°17.283 3°1.343 45.1 5 54 10.7
2009-05-08 10:43:45 51°17.331 3°1.449 44.3 5 54 10.7
2009-05-08 10:44:45 51°17.38 3°1.558 48.4 5.1 57 10.7
2009-05-08 10:45:45 51°17.426 3°1.668 51.5 5 56 10.7
2009-05-08 10:46:45 51°17.472 3°1.779 53.1 4.9 57 10.7
2009-05-08 10:47:45 51°17.517 3°1.89 52.4 4.9 57 10.8
2009-05-08 10:48:45 51°17.563 3°2.001 50.2 5 58 10.8
2009-05-08 10:49:45 51°17.61 3°2.112 47.6 5 56 10.8
2009-05-08 10:50:45 51°17.658 3°2.221 46.5 5.1 56 10.8
2009-05-08 10:51:45 51°17.705 3°2.331 48.7 5 56 10.8
2009-05-08 10:52:45 51°17.751 3°2.442 50.2 5 57 10.8
2009-05-08 10:53:45 51°17.797 3°2.552 48.5 5 59 10.8
2009-05-08 10:54:45 51°17.842 3°2.66 48.7 4.9 56 10.9
2009-05-08 10:55:45 51°17.887 3°2.768 49 4.9 57 11
2009-05-08 10:56:45 51°17.93 3°2.874 50.3 4.7 59 11
2009-05-08 10:57:45 51°17.971 3°2.981 49.4 4.7 57 11
2009-05-08 10:58:45 51°18.014 3°3.086 47.4 4.9 56 11.1
2009-05-08 10:59:45 51°18.061 3°3.195 47.4 5.1 55 11.1
2009-05-08 11:00:45 51°18.108 3°3.304 47.6 5 56 11
2009-05-08 11:01:45 51°18.154 3°3.414 45.5 5 55 11.1
2009-05-08 11:02:45 51°18.201 3°3.523 45.5 5 57 11.2
2009-05-08 11:03:45 51°18.248 3°3.632 44 5 54 11.2
2009-05-08 11:04:45 51°18.291 3°3.751 69 5.4 67 11.2
2009-05-08 11:05:45 51°18.325 3°3.889 79.8 5.7 68 11.3
2009-05-08 11:06:45 51°18.361 3°4.025 74.3 5.5 65 11.3
2009-05-08 11:07:45 51°18.403 3°4.153 61.7 5.4 61 11.4
2009-05-08 11:08:45 51°18.45 3°4.274 47.5 5.2 57 11.4
2009-05-08 11:09:45 51°18.503 3°4.38 30.7 4.9 50 11.4
2009-05-08 11:10:45 51°18.557 3°4.471 5.8 4.6 42 11.4
2009-05-08 11:11:45 51°18.614 3°4.539 336.5 4 33 10.8
2009-05-08 11:12:45 51°18.666 3°4.569 291.5 2.6 3 11.5
2009-05-08 11:13:45 51°18.677 3°4.571 226.6 1.2 155 11.2
2009-05-08 11:14:45 51°18.646 3°4.569 230 1.9 207 11.4
2009-05-08 11:15:45 51°18.618 3°4.53 231.5 2.6 214 11.3
2009-05-08 11:16:45 51°18.578 3°4.488 230.3 2.9 213 11.3
2009-05-08 11:17:45 51°18.541 3°4.445 233.6 2.8 223 11.5
2009-05-08 11:18:45 51°18.509 3°4.396 235.5 2.5 227 11.3
2009-05-08 11:19:45 51°18.48 3°4.347 235.3 2.5 223 11.5
2009-05-08 11:20:45 51°18.442 3°4.304 227.8 2.9 210 11.3
2009-05-08 11:21:45 51°18.399 3°4.266 229.8 2.8 217 11.3
2009-05-08 11:22:45 51°18.365 3°4.216 234.8 2.7 227 11.3
2009-05-08 11:23:45 51°18.332 3°4.162 234.5 2.9 228 11.4
2009-05-08 11:24:45 51°18.3 3°4.108 234.5 2.8 226 11.4
2009-05-08 11:25:45 51°18.268 3°4.055 234.5 2.8 228 11.3
2009-05-08 11:26:45 51°18.236 3°3.996 237.3 3 234 11.4
2009-05-08 11:27:45 51°18.209 3°3.93 240.1 2.9 239 11.1
2009-05-08 11:28:45 51°18.182 3°3.862 239.8 3.2 238 11.2
2009-05-08 11:29:45 51°18.156 3°3.786 242.4 3.3 243 11.1
2009-05-08 11:30:45 51°18.132 3°3.708 242.2 3.2 244 11.1
2009-05-08 11:31:45 51°18.107 3°3.636 241.8 2.9 238 11
2009-05-08 11:32:45 51°18.082 3°3.563 241.9 3.3 242 11.1
2009-05-08 11:33:45 51°18.052 3°3.487 241.1 3.4 238 11.1
2009-05-08 11:34:45 51°18.022 3°3.41 241.5 3.4 239 11
2009-05-08 11:35:45 51°17.993 3°3.332 241.4 3.4 240 11
2009-05-08 11:36:45 51°17.962 3°3.252 241.7 3.6 239 11
2009-05-08 11:37:45 51°17.934 3°3.171 241.3 3.5 240 10.9
2009-05-08 11:38:45 51°17.904 3°3.09 241.2 3.5 241 10.9
2009-05-08 11:39:45 51°17.875 3°3.01 241.5 3.6 241 10.9
2009-05-08 11:40:45 51°17.846 3°2.931 239.9 3.3 240 10.9
2009-05-08 11:41:46 51°17.821 3°2.855 241.9 3.1 243 10.9
2009-05-08 11:42:45 51°17.797 3°2.784 240.4 3 242 11
2009-05-08 11:43:45 51°17.772 3°2.712 241.1 3.2 244 10.8
2009-05-08 11:44:45 51°17.745 3°2.633 240.5 3.6 237 10.9
2009-05-08 11:45:45 51°17.712 3°2.557 237.7 3.5 234 10.8
2009-05-08 11:46:45 51°17.678 3°2.482 237.4 3.3 233 10.6
2009-05-08 11:47:45 51°17.646 3°2.409 239.2 3.4 236 10.8
2009-05-08 11:48:46 51°17.616 3°2.332 237.1 3.3 236 10.8
2009-05-08 11:49:45 51°17.583 3°2.259 238 3.5 234 10.8
2009-05-08 11:50:45 51°17.548 3°2.193 234 3.2 230 10.8
2009-05-08 11:51:45 51°17.51 3°2.125 233 3.4 227 10.6
2009-05-08 11:52:45 51°17.474 3°2.057 233.5 3.1 228 10.6
2009-05-08 11:53:45 51°17.439 3°1.989 234.6 3.6 234 10.7
2009-05-08 11:54:45 51°17.404 3°1.917 233.7 2.8 231 10.7
2009-05-08 11:55:46 51°17.385 3°1.875 239.4 1.4 238 10.7
2009-05-08 11:56:45 51°17.375 3°1.855 237.2 0.8 217 10.8
2009-05-08 11:57:46 51°17.351 3°1.829 227.9 3.2 219 10.7
2009-05-08 11:58:45 51°17.32 3°1.807 222.1 1 167 10.6
2009-05-08 11:59:45 51°17.311 3°1.828 224.4 1.1 101 10.7
2009-05-08 12:00:45 51°17.31 3°1.852 238.8 0.5 210 10.7
2009-05-08 12:01:45 51°17.286 3°1.763 245.4 5.7 245 10.5
2009-05-08 12:02:45 51°17.233 3°1.589 245.4 8.8 245 10.6
2009-05-08 12:03:45 51°17.178 3°1.362 256.6 9.3 258 10.6
2009-05-08 12:04:45 51°17.163 3°1.114 257.3 9.2 260 10.8
2009-05-08 12:05:45 51°17.123 3°0.874 254.1 9.6 255 10.9
2009-05-08 12:06:46 51°17.081 3°0.628 252.4 9.4 254 11
2009-05-08 12:07:45 51°17.042 3°0.39 253.7 9.4 256 11.1
2009-05-08 12:08:45 51°16.998 3°0.148 252.8 9.6 255 11.3
2009-05-08 12:09:45 51°16.963 2°59.907 254.8 9.1 257 11.6
2009-05-08 12:10:45 51°16.925 2°59.668 253.9 9.3 256 11.6
2009-05-08 12:11:45 51°16.89 2°59.423 255.3 9.6 257 11.7
2009-05-08 12:12:45 51°16.852 2°59.178 252.6 9.4 254 11.8
2009-05-08 12:13:45 51°16.807 2°58.94 247.8 9.4 246 11.9
2009-05-08 12:14:45 51°16.741 2°58.711 244.4 9.6 244 11.9
2009-05-08 12:15:46 51°16.667 2°58.479 244.1 9.7 245 11.9
2009-05-08 12:16:45 51°16.602 2°58.253 244.6 9.5 245 11.9
2009-05-08 12:17:45 51°16.533 2°58.025 244.3 9.7 243 11.9
2009-05-08 12:18:45 51°16.454 2°57.801 238.6 9.6 238 11.9
2009-05-08 12:19:45 51°16.369 2°57.582 238.2 9.7 236 11.7
2009-05-08 12:20:45 51°16.283 2°57.362 238.2 9.8 239 11.7
2009-05-08 12:21:45 51°16.199 2°57.142 238.9 9.7 239 11.5
2009-05-08 12:22:45 51°16.113 2°56.925 238.2 9.5 238 11.3
2009-05-08 12:23:45 51°16.039 2°56.703 242.4 9.4 240 11.3
2009-05-08 12:24:46 51°15.968 2°56.469 242.9 9.7 244 11.4
2009-05-08 12:25:45 51°15.899 2°56.238 243.6 9.8 245 11.5
2009-05-08 12:26:45 51°15.815 2°56.019 234.8 9.7 233 11.4
2009-05-08 12:27:45 51°15.716 2°55.818 232.3 9.5 230 11.3
2009-05-08 12:28:45 51°15.618 2°55.622 233.8 9.5 232 11.3
2009-05-08 12:29:45 51°15.524 2°55.426 234.2 9.3 233 11.3
2009-05-08 12:30:45 51°15.428 2°55.229 234.5 9.4 232 11.2
2009-05-08 12:31:46 51°15.315 2°55.057 220.5 9.3 214 10.9
2009-05-08 12:32:46 51°15.182 2°54.931 212.9 9.3 205 10.9
2009-05-08 12:33:45 51°15.042 2°54.836 205 9.5 195 11.7
2009-05-08 12:34:45 51°14.884 2°54.785 197.4 9.9 185 11.9
2009-05-08 12:35:46 51°14.718 2°54.745 192.1 10.1 184 12.5
2009-05-08 12:36:45 51°14.551 2°54.792 169.2 11 161 13.1
2009-05-08 12:37:45 51°14.402 2°54.983 144 11.7 138 13.2
2009-05-08 12:38:45 51°14.283 2°55.214 129.5 10.3 129 13.2
2009-05-08 12:39:45 51°14.181 2°55.375 144.8 7.2 142 13.3
2009-05-08 12:40:45 51°14.084 2°55.474 151.3 7.1 149 13
2009-05-08 12:41:45 51°13.977 2°55.55 162.2 6.7 161 13
2009-05-08 12:42:45 51°13.876 2°55.601 164.4 6.2 162 12.9
2009-05-08 12:43:45 51°13.784 2°55.667 150.1 6.1 145 12.9
2009-05-08 12:44:46 51°13.722 2°55.767 127.8 4.7 127 14.6
2009-05-08 12:45:49 51°13.68 2°55.872 116.9 4 116 11.3
2009-05-08 12:46:49 51°13.664 2°55.947 111.8 1.4 111 -999